Time,TemperatureF,DewpointF,PressureIn,WindDirection,WindDirectionDegrees,WindSpeedMPH,WindSpeedGustMPH,Humidity,HourlyPrecipIn,Conditions,Clouds,dailyrainin,SoftwareType,DateUTC
2013-01-17 00:00:00,38.6,35.6,29.93,West,270,0.0,0.0,89,0.00,,OVC,0.84,VWS V14.00,2013-01-17 05:00:00,
2013-01-17 00:01:00,38.6,35.6,29.93,West,270,0.0,0.0,89,0.00,,OVC,0.00,VWS V14.00,2013-01-17 05:01:00,
2013-01-17 00:03:00,38.6,35.6,29.93,West,270,0.0,0.0,89,0.00,,OVC,0.00,VWS V14.00,2013-01-17 05:03:00,
2013-01-17 00:08:00,38.4,35.5,29.94,West,270,0.0,0.0,89,0.00,,OVC,0.00,VWS V14.00,2013-01-17 05:08:00,
2013-01-17 00:13:00,38.4,35.5,29.94,West,270,0.0,0.0,89,0.00,,OVC,0.00,VWS V14.00,2013-01-17 05:13:00,
2013-01-17 00:18:00,38.6,35.6,29.94,West,270,0.0,0.0,89,0.00,,OVC,0.00,VWS V14.00,2013-01-17 05:18:00,
2013-01-17 00:23:00,38.6,35.6,29.94,WNW,292,0.0,0.0,89,0.00,,OVC,0.00,VWS V14.00,2013-01-17 05:23:00,
2013-01-17 00:28:00,38.8,35.8,29.94,West,270,0.0,0.0,89,0.00,,OVC,0.00,VWS V14.00,2013-01-17 05:28:00,
2013-01-17 00:33:00,38.8,35.6,29.95,WSW,248,0.0,0.0,88,0.00,,OVC,0.00,VWS V14.00,2013-01-17 05:33:00,
2013-01-17 00:38:00,38.8,35.6,29.95,West,270,0.0,0.0,88,0.00,,OVC,0.00,VWS V14.00,2013-01-17 05:38:00,
2013-01-17 00:43:00,38.8,35.6,29.95,WSW,248,0.0,0.0,88,0.00,,OVC,0.00,VWS V14.00,2013-01-17 05:43:00,
2013-01-17 00:48:00,38.8,35.6,29.96,WSW,248,0.0,0.0,88,0.00,,OVC,0.00,VWS V14.00,2013-01-17 05:48:00,
2013-01-17 00:53:00,38.8,35.6,29.95,SW,225,0.0,0.0,88,0.00,,OVC,0.00,VWS V14.00,2013-01-17 05:53:00,
2013-01-17 00:58:00,38.8,35.6,29.95,WSW,248,0.0,0.0,88,0.00,,OVC,0.00,VWS V14.00,2013-01-17 05:58:00,
2013-01-17 01:03:00,38.8,35.6,29.95,SW,225,0.6,0.6,88,0.00,,OVC,0.00,VWS V14.00,2013-01-17 06:03:00,
2013-01-17 01:08:00,38.8,35.6,29.95,WSW,248,1.5,1.5,88,0.00,,OVC,0.00,VWS V14.00,2013-01-17 06:08:00,
2013-01-17 01:13:00,38.8,35.6,29.95,WSW,248,0.0,0.0,88,0.00,,OVC,0.00,VWS V14.00,2013-01-17 06:13:00,
2013-01-17 01:18:00,39.0,35.8,29.95,SW,225,0.0,0.0,88,0.00,,OVC,0.00,VWS V14.00,2013-01-17 06:18:00,
2013-01-17 01:23:00,39.0,35.8,29.96,WSW,248,0.0,0.0,88,0.00,,OVC,0.00,VWS V14.00,2013-01-17 06:23:00,
2013-01-17 01:28:00,38.8,35.6,29.95,WSW,248,0.0,0.0,88,0.00,,OVC,0.00,VWS V14.00,2013-01-17 06:28:00,
2013-01-17 01:33:00,39.0,35.8,29.94,SW,225,0.0,0.0,88,0.00,,OVC,0.00,VWS V14.00,2013-01-17 06:33:00,
2013-01-17 01:38:00,39.0,35.8,29.94,SW,225,3.1,3.1,88,0.00,,OVC,0.00,VWS V14.00,2013-01-17 06:38:00,
2013-01-17 01:43:00,39.0,35.8,29.95,WSW,248,0.0,0.0,88,0.00,,OVC,0.00,VWS V14.00,2013-01-17 06:43:00,
2013-01-17 01:48:00,39.0,35.8,29.95,SW,225,0.0,0.0,88,0.00,,OVC,0.00,VWS V14.00,2013-01-17 06:48:00,
2013-01-17 01:53:00,39.0,35.8,29.95,WSW,248,2.6,2.6,88,0.00,,OVC,0.00,VWS V14.00,2013-01-17 06:53:00,
2013-01-17 01:58:00,39.0,35.8,29.96,WSW,248,0.0,0.0,88,0.00,,OVC,0.00,VWS V14.00,2013-01-17 06:58:00,
2013-01-17 02:03:00,39.0,35.8,29.95,WSW,248,0.0,0.0,88,0.00,,OVC,0.00,VWS V14.00,2013-01-17 07:03:00,
2013-01-17 02:08:00,38.8,35.6,29.96,West,270,0.0,0.0,88,0.00,,OVC,0.00,VWS V14.00,2013-01-17 07:08:00,
2013-01-17 02:13:00,38.8,35.6,29.96,WSW,248,0.0,0.0,88,0.00,,OVC,0.00,VWS V14.00,2013-01-17 07:13:00,
2013-01-17 02:18:00,38.8,35.6,29.95,WSW,248,0.0,0.0,88,0.00,,OVC,0.00,VWS V14.00,2013-01-17 07:18:00,
2013-01-17 02:23:00,38.8,35.6,29.96,West,270,0.6,0.6,88,0.00,,OVC,0.00,VWS V14.00,2013-01-17 07:23:00,
2013-01-17 02:28:00,38.8,35.6,29.97,West,270,0.0,0.0,88,0.00,,OVC,0.00,VWS V14.00,2013-01-17 07:28:00,
2013-01-17 02:33:00,38.6,35.4,29.96,WSW,248,0.0,0.0,88,0.00,,OVC,0.00,VWS V14.00,2013-01-17 07:33:00,
2013-01-17 02:38:00,38.6,35.4,29.97,WSW,248,0.0,0.0,88,0.00,,OVC,0.00,VWS V14.00,2013-01-17 07:38:00,
2013-01-17 02:43:00,38.8,35.6,29.96,WSW,248,2.0,2.0,88,0.00,,OVC,0.00,VWS V14.00,2013-01-17 07:43:00,
2013-01-17 02:48:00,38.8,35.6,29.96,WSW,248,0.0,0.0,88,0.00,,OVC,0.00,VWS V14.00,2013-01-17 07:48:00,
2013-01-17 02:53:00,38.8,35.6,29.97,SW,225,0.0,0.2,88,0.00,,OVC,0.00,VWS V14.00,2013-01-17 07:53:00,
2013-01-17 02:58:00,38.8,35.6,29.97,West,270,0.0,0.0,88,0.00,,OVC,0.00,VWS V14.00,2013-01-17 07:58:00,
2013-01-17 03:03:00,38.8,35.6,29.97,West,270,0.0,0.0,88,0.00,,OVC,0.00,VWS V14.00,2013-01-17 08:03:00,
2013-01-17 03:08:00,38.8,35.6,29.96,WSW,248,0.0,0.0,88,0.00,,OVC,0.00,VWS V14.00,2013-01-17 08:08:00,
2013-01-17 03:13:00,38.8,35.6,29.97,WSW,248,0.0,0.0,88,0.00,,OVC,0.00,VWS V14.00,2013-01-17 08:13:00,
2013-01-17 03:18:00,38.8,35.6,29.96,SSW,202,0.0,0.0,88,0.00,,OVC,0.00,VWS V14.00,2013-01-17 08:18:00,
2013-01-17 03:23:00,38.8,35.6,29.96,West,270,0.0,0.0,88,0.00,,OVC,0.00,VWS V14.00,2013-01-17 08:23:00,
2013-01-17 03:28:00,38.8,35.6,29.95,WSW,248,0.0,0.0,88,0.00,,OVC,0.00,VWS V14.00,2013-01-17 08:28:00,
2013-01-17 03:33:00,38.8,35.6,29.95,WSW,248,0.0,0.0,88,0.00,,OVC,0.00,VWS V14.00,2013-01-17 08:33:00,
2013-01-17 03:38:00,38.8,35.6,29.95,SW,225,0.0,0.0,88,0.00,,OVC,0.00,VWS V14.00,2013-01-17 08:38:00,
2013-01-17 03:43:00,38.8,35.6,29.96,West,270,0.0,0.0,88,0.00,,OVC,0.00,VWS V14.00,2013-01-17 08:43:00,
2013-01-17 03:48:00,38.8,35.6,29.95,West,270,0.0,0.0,88,0.00,,OVC,0.00,VWS V14.00,2013-01-17 08:48:00,
2013-01-17 03:53:00,38.8,35.3,29.95,West,270,0.0,0.0,87,0.00,,OVC,0.00,VWS V14.00,2013-01-17 08:53:00,
2013-01-17 03:58:00,38.8,35.3,29.95,West,270,0.0,0.0,87,0.00,,OVC,0.00,VWS V14.00,2013-01-17 08:58:00,
2013-01-17 04:03:00,38.8,35.3,29.95,WSW,248,0.2,0.2,87,0.00,,OVC,0.00,VWS V14.00,2013-01-17 09:03:00,
2013-01-17 04:08:00,38.8,35.3,29.95,West,270,0.0,0.0,87,0.00,,OVC,0.00,VWS V14.00,2013-01-17 09:08:00,
2013-01-17 04:13:00,38.8,35.3,29.95,West,270,0.0,0.0,87,0.00,,OVC,0.00,VWS V14.00,2013-01-17 09:13:00,
2013-01-17 04:18:00,38.6,35.1,29.94,WSW,248,0.0,0.0,87,0.00,,OVC,0.00,VWS V14.00,2013-01-17 09:18:00,
2013-01-17 04:23:00,38.6,35.1,29.95,West,270,0.0,0.0,87,0.00,,OVC,0.00,VWS V14.00,2013-01-17 09:23:00,
2013-01-17 04:28:00,38.4,34.9,29.95,West,270,0.0,0.0,87,0.00,,OVC,0.00,VWS V14.00,2013-01-17 09:28:00,
2013-01-17 04:33:00,38.6,35.1,29.95,SW,225,0.0,0.0,87,0.00,,OVC,0.00,VWS V14.00,2013-01-17 09:33:00,
2013-01-17 04:38:00,38.8,35.3,29.95,WSW,248,0.0,0.0,87,0.00,,OVC,0.00,VWS V14.00,2013-01-17 09:38:00,
2013-01-17 04:43:00,38.8,35.3,29.95,SW,225,0.0,0.0,87,0.00,,OVC,0.00,VWS V14.00,2013-01-17 09:43:00,
2013-01-17 04:48:00,38.8,35.3,29.95,West,270,0.0,0.0,87,0.00,,OVC,0.00,VWS V14.00,2013-01-17 09:48:00,
2013-01-17 04:53:00,38.8,35.3,29.95,WSW,248,0.0,0.0,87,0.00,,OVC,0.00,VWS V14.00,2013-01-17 09:53:00,
2013-01-17 04:58:00,38.8,35.3,29.96,West,270,0.0,0.0,87,0.00,,OVC,0.00,VWS V14.00,2013-01-17 09:58:00,
2013-01-17 05:03:00,39.0,35.5,29.95,WSW,248,0.0,0.0,87,0.00,,OVC,0.00,VWS V14.00,2013-01-17 10:03:00,
2013-01-17 05:08:00,39.0,35.5,29.95,WSW,248,0.0,0.0,87,0.00,,OVC,0.00,VWS V14.00,2013-01-17 10:08:00,
2013-01-17 05:13:00,39.0,35.2,29.96,WSW,248,0.4,0.4,86,0.00,,OVC,0.00,VWS V14.00,2013-01-17 10:13:00,
2013-01-17 05:18:00,39.0,35.2,29.95,WSW,248,0.0,0.0,86,0.00,,OVC,0.00,VWS V14.00,2013-01-17 10:18:00,
2013-01-17 05:23:00,39.0,35.2,29.95,West,270,0.0,0.0,86,0.00,,OVC,0.00,VWS V14.00,2013-01-17 10:23:00,
2013-01-17 05:28:00,39.0,35.2,29.95,West,270,0.0,0.0,86,0.00,,OVC,0.00,VWS V14.00,2013-01-17 10:28:00,
2013-01-17 05:33:00,39.0,35.2,29.97,West,270,0.0,0.0,86,0.00,,OVC,0.00,VWS V14.00,2013-01-17 10:33:00,
2013-01-17 05:38:00,39.0,35.2,29.97,West,270,0.0,0.0,86,0.00,,OVC,0.00,VWS V14.00,2013-01-17 10:38:00,
2013-01-17 05:43:00,39.0,35.2,29.97,West,270,0.0,0.0,86,0.00,,OVC,0.00,VWS V14.00,2013-01-17 10:43:00,
2013-01-17 05:48:00,39.0,35.2,29.97,West,270,0.0,0.0,86,0.00,,OVC,0.00,VWS V14.00,2013-01-17 10:48:00,
2013-01-17 05:53:00,39.0,35.2,29.97,West,270,1.5,1.5,86,0.00,,OVC,0.00,VWS V14.00,2013-01-17 10:53:00,
2013-01-17 05:58:00,39.0,35.2,29.97,WSW,248,0.6,0.6,86,0.00,,OVC,0.00,VWS V14.00,2013-01-17 10:58:00,
2013-01-17 06:03:00,39.0,35.2,29.98,WSW,248,0.0,0.0,86,0.00,,OVC,0.00,VWS V14.00,2013-01-17 11:03:00,
2013-01-17 06:08:00,39.0,35.2,29.97,WSW,248,0.0,0.0,86,0.00,,OVC,0.00,VWS V14.00,2013-01-17 11:08:00,
2013-01-17 06:13:00,39.0,35.2,29.98,WSW,248,0.0,0.0,86,0.00,,OVC,0.00,VWS V14.00,2013-01-17 11:13:00,
2013-01-17 06:18:00,39.0,35.2,29.98,West,270,0.0,0.0,86,0.00,,OVC,0.00,VWS V14.00,2013-01-17 11:18:00,
2013-01-17 06:23:00,38.8,35.0,29.98,West,270,0.0,0.0,86,0.00,,OVC,0.00,VWS V14.00,2013-01-17 11:23:00,
2013-01-17 06:28:00,38.8,35.0,29.99,WSW,248,0.0,0.0,86,0.00,,OVC,0.00,VWS V14.00,2013-01-17 11:28:00,
2013-01-17 06:33:00,38.4,34.6,29.99,WSW,248,0.0,0.0,86,0.00,,OVC,0.00,VWS V14.00,2013-01-17 11:33:00,
2013-01-17 06:38:00,38.4,34.6,30.00,WNW,292,0.0,0.0,86,0.00,,OVC,0.00,VWS V14.00,2013-01-17 11:38:00,
2013-01-17 06:43:00,38.4,34.3,30.01,SW,225,0.6,0.6,85,0.00,,OVC,0.00,VWS V14.00,2013-01-17 11:43:00,
2013-01-17 06:48:00,38.6,34.5,30.01,WSW,248,0.0,0.0,85,0.00,,OVC,0.00,VWS V14.00,2013-01-17 11:48:00,
2013-01-17 06:53:00,38.4,34.0,30.01,West,270,0.0,0.0,84,0.00,,OVC,0.00,VWS V14.00,2013-01-17 11:53:00,
2013-01-17 06:58:00,38.4,34.0,30.01,SW,225,0.0,0.0,84,0.00,,OVC,0.00,VWS V14.00,2013-01-17 11:58:00,
2013-01-17 07:03:00,38.8,34.1,30.01,WSW,248,4.6,4.6,83,0.00,,OVC,0.00,VWS V14.00,2013-01-17 12:03:00,
2013-01-17 07:08:00,38.8,34.1,30.02,West,270,0.0,0.0,83,0.00,,OVC,0.00,VWS V14.00,2013-01-17 12:08:00,
2013-01-17 07:13:00,38.8,33.8,30.01,West,270,0.0,0.0,82,0.00,,OVC,0.00,VWS V14.00,2013-01-17 12:13:00,
2013-01-17 07:18:00,38.8,33.8,30.01,West,270,1.7,1.7,82,0.00,,OVC,0.00,VWS V14.00,2013-01-17 12:18:00,
2013-01-17 07:23:00,38.4,33.4,30.02,West,270,1.1,1.1,82,0.00,,OVC,0.00,VWS V14.00,2013-01-17 12:23:00,
2013-01-17 07:28:00,38.4,33.4,30.02,West,270,1.7,1.7,82,0.00,,OVC,0.00,VWS V14.00,2013-01-17 12:28:00,
2013-01-17 07:33:00,38.4,33.1,30.03,WNW,292,0.0,0.0,81,0.00,,OVC,0.00,VWS V14.00,2013-01-17 12:33:00,
2013-01-17 07:38:00,38.4,33.1,30.03,WNW,292,0.0,0.0,81,0.00,,OVC,0.00,VWS V14.00,2013-01-17 12:38:00,
2013-01-17 07:43:00,38.4,33.1,30.03,WNW,292,0.0,0.0,81,0.00,,OVC,0.00,VWS V14.00,2013-01-17 12:43:00,
2013-01-17 07:48:00,38.3,33.0,30.03,NW,315,5.3,5.3,81,0.00,,OVC,0.00,VWS V14.00,2013-01-17 12:48:00,
2013-01-17 07:53:00,38.3,32.7,30.03,WNW,292,0.0,0.0,80,0.00,,OVC,0.00,VWS V14.00,2013-01-17 12:53:00,
2013-01-17 07:58:00,38.1,32.5,30.04,West,270,0.0,0.0,80,0.00,,OVC,0.00,VWS V14.00,2013-01-17 12:58:00,
2013-01-17 08:03:00,38.3,32.7,30.05,WNW,292,1.1,1.1,80,0.00,,OVC,0.00,VWS V14.00,2013-01-17 13:03:00,
2013-01-17 08:08:00,38.4,32.8,30.04,West,270,0.0,0.0,80,0.00,,OVC,0.00,VWS V14.00,2013-01-17 13:08:00,
2013-01-17 08:13:00,38.8,32.9,30.05,WNW,292,0.0,0.0,79,0.00,,OVC,0.00,VWS V14.00,2013-01-17 13:13:00,
2013-01-17 08:18:00,39.3,33.3,30.05,WNW,292,0.6,0.6,79,0.00,,OVC,0.00,VWS V14.00,2013-01-17 13:18:00,
2013-01-17 08:23:00,39.5,33.5,30.06,West,270,0.0,0.0,79,0.00,,OVC,0.00,VWS V14.00,2013-01-17 13:23:00,
2013-01-17 08:28:00,39.9,33.9,30.06,West,270,0.0,0.0,79,0.00,,OVC,0.00,VWS V14.00,2013-01-17 13:28:00,
2013-01-17 08:33:00,40.2,34.2,30.07,West,270,0.0,0.0,79,0.00,,OVC,0.00,VWS V14.00,2013-01-17 13:33:00,
2013-01-17 08:38:00,40.1,33.8,30.07,West,270,0.0,0.0,78,0.00,,OVC,0.00,VWS V14.00,2013-01-17 13:38:00,
2013-01-17 08:43:00,39.9,33.3,30.07,WNW,292,0.0,0.0,77,0.00,,OVC,0.00,VWS V14.00,2013-01-17 13:43:00,
2013-01-17 08:48:00,39.9,33.0,30.07,West,270,3.8,3.8,76,0.00,,OVC,0.00,VWS V14.00,2013-01-17 13:48:00,
2013-01-17 08:52:00,39.9,33.0,30.07,West,270,0.0,0.0,76,0.00,,OVC,0.00,VWS V14.00,2013-01-17 13:52:00,
2013-01-17 08:57:00,39.9,32.3,30.07,NW,315,0.0,0.0,74,0.00,,OVC,0.00,VWS V14.00,2013-01-17 13:57:00,
2013-01-17 09:02:00,40.1,32.2,30.06,NNE,22,0.0,0.0,73,0.00,,OVC,0.00,VWS V14.00,2013-01-17 14:02:00,
2013-01-17 09:07:00,40.1,32.2,30.07,NW,315,2.2,2.2,73,0.00,,OVC,0.00,VWS V14.00,2013-01-17 14:07:00,
2013-01-17 09:12:00,40.1,32.2,30.08,NW,315,0.0,0.0,73,0.00,,OVC,0.00,VWS V14.00,2013-01-17 14:12:00,
2013-01-17 09:18:00,39.9,32.0,30.08,WNW,292,0.0,0.0,73,0.00,,OVC,0.00,VWS V14.00,2013-01-17 14:18:00,
2013-01-17 09:23:00,40.1,32.2,30.08,WSW,248,2.9,2.9,73,0.00,,OVC,0.00,VWS V14.00,2013-01-17 14:23:00,
2013-01-17 09:28:00,40.2,32.2,30.08,NW,315,0.0,0.0,73,0.00,,OVC,0.00,VWS V14.00,2013-01-17 14:28:00,
2013-01-17 09:33:00,40.2,32.2,30.08,West,270,0.0,0.0,73,0.00,,OVC,0.00,VWS V14.00,2013-01-17 14:33:00,
2013-01-17 09:38:00,40.6,32.6,30.09,West,270,0.0,0.0,73,0.00,,OVC,0.00,VWS V14.00,2013-01-17 14:38:00,
2013-01-17 09:43:00,40.8,32.8,30.08,West,270,0.0,0.0,73,0.00,,OVC,0.00,VWS V14.00,2013-01-17 14:43:00,
2013-01-17 09:48:00,41.0,33.0,30.09,West,270,0.0,0.0,73,0.00,,OVC,0.00,VWS V14.00,2013-01-17 14:48:00,
2013-01-17 09:53:00,41.1,32.8,30.08,North,0,1.1,1.1,72,0.00,,OVC,0.00,VWS V14.00,2013-01-17 14:53:00,
2013-01-17 09:58:00,41.5,33.2,30.08,North,0,0.0,0.0,72,0.00,,OVC,0.00,VWS V14.00,2013-01-17 14:58:00,
2013-01-17 10:03:00,41.7,33.0,30.08,NW,315,0.0,0.0,71,0.00,,OVC,0.00,VWS V14.00,2013-01-17 15:03:00,
2013-01-17 10:07:00,42.6,33.9,30.08,NNW,338,0.0,0.0,71,0.00,,OVC,0.00,VWS V14.00,2013-01-17 15:07:00,
2013-01-17 10:12:00,42.9,33.4,30.07,WNW,292,3.5,3.5,69,0.00,,OVC,0.00,VWS V14.00,2013-01-17 15:12:00,
2013-01-17 10:17:00,43.1,33.6,30.07,NW,315,0.0,0.0,69,0.00,,OVC,0.00,VWS V14.00,2013-01-17 15:17:00,
2013-01-17 10:22:00,42.9,33.1,30.07,West,270,0.0,0.0,68,0.00,,OVC,0.00,VWS V14.00,2013-01-17 15:22:00,
2013-01-17 10:27:00,42.9,33.1,30.08,North,0,1.5,1.5,68,0.00,,OVC,0.00,VWS V14.00,2013-01-17 15:27:00,
2013-01-17 10:32:00,42.6,32.8,30.08,WNW,292,0.0,0.0,68,0.00,,OVC,0.00,VWS V14.00,2013-01-17 15:32:00,
2013-01-17 10:38:00,42.4,32.2,30.08,West,270,0.0,0.0,67,0.00,,OVC,0.00,VWS V14.00,2013-01-17 15:38:00,
2013-01-17 10:43:00,42.4,32.2,30.07,NNW,338,5.1,5.1,67,0.00,,OVC,0.00,VWS V14.00,2013-01-17 15:43:00,
2013-01-17 10:48:00,42.4,32.2,30.07,West,270,0.0,0.0,67,0.00,,OVC,0.00,VWS V14.00,2013-01-17 15:48:00,
2013-01-17 10:53:00,43.1,33.3,30.08,WNW,292,0.0,0.0,68,0.00,,OVC,0.00,VWS V14.00,2013-01-17 15:53:00,
2013-01-17 10:58:00,43.8,33.6,30.08,WNW,292,0.0,0.0,67,0.00,,OVC,0.00,VWS V14.00,2013-01-17 15:58:00,
2013-01-17 11:03:00,44.0,33.4,30.08,WNW,292,0.0,0.0,66,0.00,,OVC,0.00,VWS V14.00,2013-01-17 16:03:00,
2013-01-17 11:08:00,44.7,34.0,30.08,NW,315,0.0,0.0,66,0.00,,OVC,0.00,VWS V14.00,2013-01-17 16:08:00,
2013-01-17 11:12:00,44.4,33.0,30.08,West,270,0.0,0.0,64,0.00,,OVC,0.00,VWS V14.00,2013-01-17 16:12:00,
2013-01-17 11:17:00,44.2,32.8,30.08,NW,315,0.0,0.0,64,0.00,,OVC,0.00,VWS V14.00,2013-01-17 16:17:00,
2013-01-17 11:22:00,44.0,32.6,30.08,WNW,292,0.0,0.0,64,0.00,,OVC,0.00,VWS V14.00,2013-01-17 16:22:00,
2013-01-17 11:27:00,43.8,32.8,30.08,NW,315,0.0,0.0,65,0.00,,OVC,0.00,VWS V14.00,2013-01-17 16:27:00,
2013-01-17 11:32:00,43.8,32.8,30.08,NNW,338,0.0,0.0,65,0.00,,OVC,0.00,VWS V14.00,2013-01-17 16:32:00,
2013-01-17 11:37:00,44.2,33.2,30.08,WNW,292,4.2,4.2,65,0.00,,OVC,0.00,VWS V14.00,2013-01-17 16:37:00,
2013-01-17 11:42:00,44.4,33.4,30.08,SW,225,0.0,0.0,65,0.00,,OVC,0.00,VWS V14.00,2013-01-17 16:42:00,
2013-01-17 11:47:00,45.1,34.0,30.07,North,0,5.5,5.5,65,0.00,,OVC,0.00,VWS V14.00,2013-01-17 16:47:00,
2013-01-17 11:52:00,45.1,33.3,30.06,North,0,2.9,2.9,63,0.00,,OVC,0.00,VWS V14.00,2013-01-17 16:52:00,
2013-01-17 11:57:00,45.1,33.3,30.08,NNE,22,1.7,1.7,63,0.00,,OVC,0.00,VWS V14.00,2013-01-17 16:57:00,
2013-01-17 12:02:00,44.9,33.5,30.07,North,0,0.0,0.0,64,0.00,,OVC,0.00,VWS V14.00,2013-01-17 17:02:00,
2013-01-17 12:07:00,44.9,33.1,30.06,NW,315,0.0,0.0,63,0.00,,OVC,0.00,VWS V14.00,2013-01-17 17:07:00,
2013-01-17 12:12:00,44.9,33.1,30.06,NNW,338,1.5,1.5,63,0.00,,OVC,0.00,VWS V14.00,2013-01-17 17:12:00,
2013-01-17 12:17:00,45.1,33.3,30.07,NNW,338,0.2,0.2,63,0.00,,OVC,0.00,VWS V14.00,2013-01-17 17:17:00,
2013-01-17 12:22:00,45.5,33.2,30.07,ESE,112,1.5,1.5,62,0.00,,OVC,0.00,VWS V14.00,2013-01-17 17:22:00,
2013-01-17 12:27:00,45.5,32.8,30.06,NNE,22,1.1,1.1,61,0.00,,OVC,0.00,VWS V14.00,2013-01-17 17:27:00,
2013-01-17 12:32:00,46.2,33.5,30.07,NW,315,0.0,0.0,61,0.00,,OVC,0.00,VWS V14.00,2013-01-17 17:32:00,
2013-01-17 12:37:00,46.5,33.4,30.07,West,270,0.0,0.0,60,0.00,,OVC,0.00,VWS V14.00,2013-01-17 17:37:00,
2013-01-17 12:42:00,46.0,32.5,30.06,West,270,2.0,2.0,59,0.00,,OVC,0.00,VWS V14.00,2013-01-17 17:42:00,
2013-01-17 12:47:00,45.1,32.1,30.06,West,270,0.0,0.0,60,0.00,,OVC,0.00,VWS V14.00,2013-01-17 17:47:00,
2013-01-17 12:52:00,45.1,32.1,30.05,SW,225,0.0,0.0,60,0.00,,OVC,0.00,VWS V14.00,2013-01-17 17:52:00,
2013-01-17 12:57:00,45.3,32.2,30.06,North,0,0.0,0.0,60,0.00,,OVC,0.00,VWS V14.00,2013-01-17 17:57:00,
2013-01-17 13:02:00,45.3,31.4,30.05,North,0,0.0,0.0,58,0.00,,OVC,0.00,VWS V14.00,2013-01-17 18:02:00,
2013-01-17 13:07:00,44.9,31.0,30.06,NE,45,0.0,0.0,58,0.00,,OVC,0.00,VWS V14.00,2013-01-17 18:07:00,
2013-01-17 13:12:00,44.9,31.5,30.05,North,0,0.0,0.0,59,0.00,,OVC,0.00,VWS V14.00,2013-01-17 18:12:00,
2013-01-17 13:17:00,45.3,31.8,30.05,NNW,338,0.0,0.0,59,0.00,,OVC,0.00,VWS V14.00,2013-01-17 18:17:00,
2013-01-17 13:22:00,46.0,32.5,30.05,West,270,1.1,1.1,59,0.00,,OVC,0.00,VWS V14.00,2013-01-17 18:22:00,
2013-01-17 13:27:00,46.4,32.4,30.06,NNW,338,0.0,0.0,58,0.00,,OVC,0.00,VWS V14.00,2013-01-17 18:27:00,
2013-01-17 13:32:00,46.5,32.1,30.05,NNE,22,4.6,4.6,57,0.00,,OVC,0.00,VWS V14.00,2013-01-17 18:32:00,
2013-01-17 13:37:00,46.4,32.0,30.05,WNW,292,0.0,0.0,57,0.00,,OVC,0.00,VWS V14.00,2013-01-17 18:37:00,
2013-01-17 13:42:00,46.0,31.2,30.05,NNE,22,0.0,0.0,56,0.00,,OVC,0.00,VWS V14.00,2013-01-17 18:42:00,
2013-01-17 13:47:00,45.1,30.4,30.03,NE,45,0.4,0.4,56,0.00,,OVC,0.00,VWS V14.00,2013-01-17 18:47:00,
2013-01-17 13:52:00,44.9,31.0,30.04,NE,45,0.0,0.0,58,0.00,,OVC,0.00,VWS V14.00,2013-01-17 18:52:00,
2013-01-17 13:57:00,44.7,30.9,30.04,West,270,0.0,0.0,58,0.00,,OVC,0.00,VWS V14.00,2013-01-17 18:57:00,
2013-01-17 14:02:00,44.9,31.5,30.04,NNE,22,2.0,2.0,59,0.00,,OVC,0.00,VWS V14.00,2013-01-17 19:02:00,
2013-01-17 14:07:00,44.7,31.3,30.03,NE,45,6.7,6.7,59,0.00,,OVC,0.00,VWS V14.00,2013-01-17 19:07:00,
2013-01-17 14:12:00,44.7,31.3,30.04,NNW,338,0.0,0.0,59,0.00,,OVC,0.00,VWS V14.00,2013-01-17 19:12:00,
2013-01-17 14:17:00,45.1,31.6,30.04,NNE,22,2.0,2.0,59,0.00,,OVC,0.00,VWS V14.00,2013-01-17 19:17:00,
2013-01-17 14:22:00,44.9,31.0,30.04,NE,45,0.0,0.0,58,0.00,,OVC,0.00,VWS V14.00,2013-01-17 19:22:00,
2013-01-17 14:27:00,44.9,31.5,30.04,NNW,338,2.0,2.0,59,0.00,,OVC,0.00,VWS V14.00,2013-01-17 19:27:00,
2013-01-17 14:32:00,45.1,31.6,30.05,NW,315,1.3,1.3,59,0.00,,OVC,0.00,VWS V14.00,2013-01-17 19:32:00,
2013-01-17 14:37:00,45.1,32.1,30.05,NNW,338,0.0,0.0,60,0.00,,OVC,0.00,VWS V14.00,2013-01-17 19:37:00,
2013-01-17 14:42:00,45.1,31.6,30.05,NW,315,0.0,0.0,59,0.00,,OVC,0.00,VWS V14.00,2013-01-17 19:42:00,
2013-01-17 14:47:00,45.1,32.1,30.05,NW,315,2.4,2.4,60,0.00,,OVC,0.00,VWS V14.00,2013-01-17 19:47:00,
2013-01-17 14:52:00,45.3,31.8,30.05,NW,315,0.0,0.0,59,0.00,,OVC,0.00,VWS V14.00,2013-01-17 19:52:00,
2013-01-17 14:57:00,45.1,31.6,30.05,NNE,22,1.1,1.1,59,0.00,,OVC,0.00,VWS V14.00,2013-01-17 19:57:00,
2013-01-17 15:02:00,44.9,31.9,30.04,NNW,338,0.0,0.0,60,0.00,,OVC,0.00,VWS V14.00,2013-01-17 20:02:00,
2013-01-17 15:07:00,44.7,31.7,30.04,North,0,0.0,0.0,60,0.00,,OVC,0.00,VWS V14.00,2013-01-17 20:07:00,
2013-01-17 15:12:00,44.4,31.4,30.04,NNW,338,0.0,0.0,60,0.00,,OVC,0.00,VWS V14.00,2013-01-17 20:12:00,
2013-01-17 15:17:00,44.0,31.4,30.04,NNW,338,0.0,0.0,61,0.00,,OVC,0.00,VWS V14.00,2013-01-17 20:17:00,
2013-01-17 15:22:00,43.8,31.2,30.05,NNW,338,0.8,0.8,61,0.00,,OVC,0.00,VWS V14.00,2013-01-17 20:22:00,
2013-01-17 15:27:00,43.8,31.6,30.05,NNW,338,0.0,0.0,62,0.00,,OVC,0.00,VWS V14.00,2013-01-17 20:27:00,
2013-01-17 15:32:00,43.7,31.5,30.05,NNE,22,0.0,0.0,62,0.00,,OVC,0.00,VWS V14.00,2013-01-17 20:32:00,
2013-01-17 15:37:00,43.5,31.4,30.06,NNE,22,0.0,0.0,62,0.00,,OVC,0.00,VWS V14.00,2013-01-17 20:37:00,
2013-01-17 15:42:00,43.5,31.4,30.06,NNE,22,0.0,0.0,62,0.00,,OVC,0.00,VWS V14.00,2013-01-17 20:42:00,
2013-01-17 15:47:00,43.5,31.8,30.07,NNE,22,0.0,0.0,63,0.00,,OVC,0.00,VWS V14.00,2013-01-17 20:47:00,
2013-01-17 15:52:00,43.3,31.6,30.06,NNE,22,0.0,0.0,63,0.00,,OVC,0.00,VWS V14.00,2013-01-17 20:52:00,
2013-01-17 15:57:00,43.3,31.6,30.07,NNE,22,0.0,0.0,63,0.00,,OVC,0.00,VWS V14.00,2013-01-17 20:57:00,
2013-01-17 16:02:00,43.1,31.8,30.06,NNE,22,0.0,0.0,64,0.00,,OVC,0.00,VWS V14.00,2013-01-17 21:02:00,
2013-01-17 16:07:00,42.9,31.6,30.05,NNE,22,0.0,0.0,64,0.00,,OVC,0.00,VWS V14.00,2013-01-17 21:07:00,
2013-01-17 16:12:00,42.9,31.6,30.05,NNE,22,0.0,0.0,64,0.00,,OVC,0.00,VWS V14.00,2013-01-17 21:12:00,
2013-01-17 16:18:00,42.6,30.9,30.05,NNE,22,0.0,0.0,63,0.00,,OVC,0.00,VWS V14.00,2013-01-17 21:18:00,
2013-01-17 16:23:00,42.6,31.3,30.07,NNE,22,0.0,0.0,64,0.00,,OVC,0.00,VWS V14.00,2013-01-17 21:23:00,
2013-01-17 16:28:00,42.6,31.3,30.07,North,0,2.4,2.4,64,0.00,,OVC,0.00,VWS V14.00,2013-01-17 21:28:00,
2013-01-17 16:33:00,42.4,30.7,30.07,North,0,0.0,0.0,63,0.00,,OVC,0.00,VWS V14.00,2013-01-17 21:33:00,
2013-01-17 16:38:00,42.4,30.7,30.07,NNE,22,0.0,0.0,63,0.00,,OVC,0.00,VWS V14.00,2013-01-17 21:38:00,
2013-01-17 16:43:00,42.4,31.1,30.08,NNE,22,0.0,0.0,64,0.00,,OVC,0.00,VWS V14.00,2013-01-17 21:43:00,
2013-01-17 16:48:00,42.2,31.3,30.09,NNE,22,0.0,0.0,65,0.00,,OVC,0.00,VWS V14.00,2013-01-17 21:48:00,
2013-01-17 16:53:00,42.0,31.1,30.09,NNE,22,0.0,0.0,65,0.00,,OVC,0.00,VWS V14.00,2013-01-17 21:53:00,
2013-01-17 16:58:00,42.0,31.9,30.08,NNE,22,0.0,0.0,67,0.00,,OVC,0.00,VWS V14.00,2013-01-17 21:58:00,
2013-01-17 17:03:00,41.9,31.8,30.08,NNE,22,0.0,0.0,67,0.00,,OVC,0.00,VWS V14.00,2013-01-17 22:03:00,
2013-01-17 17:08:00,41.9,32.1,30.09,NNE,22,0.0,0.0,68,0.00,,OVC,0.00,VWS V14.00,2013-01-17 22:08:00,
2013-01-17 17:13:00,41.7,31.9,30.08,NNE,22,0.0,0.0,68,0.00,,OVC,0.00,VWS V14.00,2013-01-17 22:13:00,
2013-01-17 17:18:00,41.5,31.7,30.08,NNE,22,0.0,0.0,68,0.00,,OVC,0.00,VWS V14.00,2013-01-17 22:18:00,
2013-01-17 17:23:00,41.5,31.7,30.08,NNE,22,0.0,0.0,68,0.00,,OVC,0.00,VWS V14.00,2013-01-17 22:23:00,
2013-01-17 17:28:00,41.5,32.1,30.07,NNE,22,0.0,0.0,69,0.00,,OVC,0.00,VWS V14.00,2013-01-17 22:28:00,
2013-01-17 17:33:00,41.3,31.9,30.07,NNE,22,0.0,0.0,69,0.00,,OVC,0.00,VWS V14.00,2013-01-17 22:33:00,
2013-01-17 17:38:00,41.3,32.3,30.09,NNE,22,0.0,0.0,70,0.00,,OVC,0.00,VWS V14.00,2013-01-17 22:38:00,
2013-01-17 17:43:00,41.1,32.1,30.07,NNE,22,0.0,0.0,70,0.00,,OVC,0.00,VWS V14.00,2013-01-17 22:43:00,
2013-01-17 17:48:00,41.1,32.1,30.06,NNE,22,0.0,0.0,70,0.00,,OVC,0.00,VWS V14.00,2013-01-17 22:48:00,
2013-01-17 17:53:00,41.1,32.4,30.08,NNE,22,0.0,0.0,71,0.00,,OVC,0.00,VWS V14.00,2013-01-17 22:53:00,
2013-01-17 17:58:00,41.1,32.4,30.08,NNE,22,0.0,0.0,71,0.00,,OVC,0.00,VWS V14.00,2013-01-17 22:58:00,
2013-01-17 18:02:00,41.1,32.8,30.08,NNE,22,0.0,0.0,72,0.00,,OVC,0.00,VWS V14.00,2013-01-17 23:02:00,
2013-01-17 18:07:00,41.1,32.8,30.08,NNE,22,0.0,0.0,72,0.00,,OVC,0.00,VWS V14.00,2013-01-17 23:07:00,
2013-01-17 18:12:00,41.1,33.1,30.08,North,0,0.0,0.0,73,0.00,,OVC,0.00,VWS V14.00,2013-01-17 23:12:00,
2013-01-17 18:17:00,41.0,32.7,30.08,NNE,22,0.0,0.0,72,0.00,,OVC,0.00,VWS V14.00,2013-01-17 23:17:00,
2013-01-17 18:22:00,40.8,32.8,30.08,NNE,22,0.0,0.0,73,0.00,,OVC,0.00,VWS V14.00,2013-01-17 23:22:00,
2013-01-17 18:27:00,41.0,33.0,30.09,NNE,22,0.0,0.0,73,0.00,,OVC,0.00,VWS V14.00,2013-01-17 23:27:00,
2013-01-17 18:32:00,40.8,32.8,30.09,NNE,22,0.0,0.0,73,0.00,,OVC,0.00,VWS V14.00,2013-01-17 23:32:00,
2013-01-17 18:37:00,40.8,33.2,30.09,NNE,22,0.0,0.0,74,0.00,,OVC,0.00,VWS V14.00,2013-01-17 23:37:00,
2013-01-17 18:42:00,40.8,33.2,30.09,NNE,22,0.0,0.0,74,0.00,,OVC,0.00,VWS V14.00,2013-01-17 23:42:00,
2013-01-17 18:47:00,40.6,32.6,30.08,NNE,22,0.0,0.0,73,0.00,,OVC,0.00,VWS V14.00,2013-01-17 23:47:00,
2013-01-17 18:52:00,40.6,32.6,30.09,NNE,22,0.0,0.0,73,0.00,,OVC,0.00,VWS V14.00,2013-01-17 23:52:00,
2013-01-17 18:57:00,40.4,32.1,30.08,NNE,22,0.0,0.0,72,0.00,,OVC,0.00,VWS V14.00,2013-01-17 23:57:00,
2013-01-17 19:02:00,40.4,32.1,30.09,NNE,22,0.0,0.0,72,0.00,,OVC,0.00,VWS V14.00,2013-01-18 00:02:00,
2013-01-17 19:07:00,40.2,31.9,30.09,North,0,0.0,0.0,72,0.00,,OVC,0.00,VWS V14.00,2013-01-18 00:07:00,
2013-01-17 19:12:00,40.2,31.9,30.08,WNW,292,0.0,0.0,72,0.00,,OVC,0.00,VWS V14.00,2013-01-18 00:12:00,
2013-01-17 19:17:00,40.4,32.1,30.08,WNW,292,0.0,0.0,72,0.00,,OVC,0.00,VWS V14.00,2013-01-18 00:17:00,
2013-01-17 19:23:00,40.4,32.1,30.08,WNW,292,0.0,0.0,72,0.00,,OVC,0.00,VWS V14.00,2013-01-18 00:23:00,
2013-01-17 19:27:00,40.4,32.1,30.08,WNW,292,0.0,0.0,72,0.00,,OVC,0.00,VWS V14.00,2013-01-18 00:27:00,
2013-01-17 19:32:00,40.4,32.1,30.08,WNW,292,0.0,0.0,72,0.00,,OVC,0.00,VWS V14.00,2013-01-18 00:32:00,
2013-01-17 19:38:00,40.4,32.1,30.09,WNW,292,0.0,0.0,72,0.00,,OVC,0.00,VWS V14.00,2013-01-18 00:38:00,
2013-01-17 19:43:00,40.2,31.9,30.08,WNW,292,0.0,0.0,72,0.00,,OVC,0.00,VWS V14.00,2013-01-18 00:43:00,
2013-01-17 19:48:00,40.2,31.9,30.09,WNW,292,0.0,0.0,72,0.00,,OVC,0.00,VWS V14.00,2013-01-18 00:48:00,
2013-01-17 19:53:00,40.1,31.8,30.10,WNW,292,0.0,0.0,72,0.00,,OVC,0.00,VWS V14.00,2013-01-18 00:53:00,
2013-01-17 19:58:00,40.1,31.8,30.09,WNW,292,0.0,0.0,72,0.00,,OVC,0.00,VWS V14.00,2013-01-18 00:58:00,
2013-01-17 20:03:00,40.1,31.8,30.08,WNW,292,0.0,0.0,72,0.00,,OVC,0.00,VWS V14.00,2013-01-18 01:03:00,
2013-01-17 20:08:00,40.1,31.8,30.08,WNW,292,0.0,0.0,72,0.00,,OVC,0.00,VWS V14.00,2013-01-18 01:08:00,
2013-01-17 20:13:00,40.1,31.8,30.08,WNW,292,0.0,0.0,72,0.00,,OVC,0.00,VWS V14.00,2013-01-18 01:13:00,
2013-01-17 20:18:00,40.1,32.2,30.08,WNW,292,0.0,0.0,73,0.00,,OVC,0.00,VWS V14.00,2013-01-18 01:18:00,
2013-01-17 20:23:00,40.1,32.5,30.07,WNW,292,0.0,0.0,74,0.00,,OVC,0.00,VWS V14.00,2013-01-18 01:23:00,
2013-01-17 20:28:00,40.1,32.5,30.06,WNW,292,0.0,0.0,74,0.00,,OVC,0.00,VWS V14.00,2013-01-18 01:28:00,
2013-01-17 20:33:00,40.1,32.5,30.05,WNW,292,0.0,0.0,74,0.00,,OVC,0.00,VWS V14.00,2013-01-18 01:33:00,
2013-01-17 20:38:00,40.1,32.5,30.05,WNW,292,0.0,0.0,74,0.00,,OVC,0.00,VWS V14.00,2013-01-18 01:38:00,
2013-01-17 20:43:00,39.9,32.6,30.05,WNW,292,0.0,0.0,75,0.00,,OVC,0.00,VWS V14.00,2013-01-18 01:43:00,
2013-01-17 20:48:00,39.9,33.0,30.05,WNW,292,0.0,0.0,76,0.00,,OVC,0.00,VWS V14.00,2013-01-18 01:48:00,
2013-01-17 20:53:00,39.9,33.0,30.06,WNW,292,0.0,0.0,76,0.00,,OVC,0.00,VWS V14.00,2013-01-18 01:53:00,
2013-01-17 20:58:00,39.9,33.0,30.06,WNW,292,0.0,0.0,76,0.00,,OVC,0.00,VWS V14.00,2013-01-18 01:58:00,
2013-01-17 21:03:00,39.9,33.0,30.06,WNW,292,0.0,0.0,76,0.00,,OVC,0.00,VWS V14.00,2013-01-18 02:03:00,
2013-01-17 21:08:00,39.7,32.8,30.06,West,270,0.0,0.0,76,0.00,,OVC,0.00,VWS V14.00,2013-01-18 02:08:00,
2013-01-17 21:13:00,39.5,32.6,30.05,West,270,0.0,0.0,76,0.00,,OVC,0.00,VWS V14.00,2013-01-18 02:13:00,
2013-01-17 21:18:00,39.5,32.9,30.06,West,270,0.0,0.0,77,0.00,,OVC,0.00,VWS V14.00,2013-01-18 02:18:00,
2013-01-17 21:23:00,39.5,33.2,30.05,West,270,0.0,0.0,78,0.00,,OVC,0.00,VWS V14.00,2013-01-18 02:23:00,
2013-01-17 21:28:00,39.3,33.0,30.05,West,270,0.0,0.0,78,0.00,,OVC,0.00,VWS V14.00,2013-01-18 02:28:00,
2013-01-17 21:33:00,39.3,33.0,30.05,West,270,0.0,0.0,78,0.00,,OVC,0.00,VWS V14.00,2013-01-18 02:33:00,
2013-01-17 21:38:00,39.0,32.4,30.04,West,270,0.0,0.0,77,0.00,,OVC,0.00,VWS V14.00,2013-01-18 02:38:00,
2013-01-17 21:43:00,39.0,32.4,30.04,North,0,0.0,0.0,77,0.00,,OVC,0.00,VWS V14.00,2013-01-18 02:43:00,
2013-01-17 21:48:00,39.0,32.4,30.04,West,270,0.0,0.0,77,0.00,,OVC,0.00,VWS V14.00,2013-01-18 02:48:00,
2013-01-17 21:53:00,39.0,32.7,30.03,West,270,0.0,0.0,78,0.00,,OVC,0.00,VWS V14.00,2013-01-18 02:53:00,
2013-01-17 21:58:00,39.0,32.7,30.01,West,270,0.0,0.0,78,0.00,,OVC,0.00,VWS V14.00,2013-01-18 02:58:00,
2013-01-17 22:03:00,39.0,32.7,30.01,West,270,0.0,0.0,78,0.00,,OVC,0.00,VWS V14.00,2013-01-18 03:03:00,
2013-01-17 22:08:00,39.0,33.0,30.01,West,270,0.0,0.0,79,0.00,,OVC,0.00,VWS V14.00,2013-01-18 03:08:00,
2013-01-17 22:13:00,38.8,32.9,30.00,West,270,0.0,0.0,79,0.00,,OVC,0.00,VWS V14.00,2013-01-18 03:13:00,
2013-01-17 22:18:00,38.8,32.9,30.00,West,270,0.0,0.0,79,0.00,,OVC,0.00,VWS V14.00,2013-01-18 03:18:00,
2013-01-17 22:23:00,38.8,32.9,30.03,West,270,0.0,0.0,79,0.00,,OVC,0.00,VWS V14.00,2013-01-18 03:23:00,
2013-01-17 22:28:00,38.8,32.9,30.02,West,270,0.0,0.0,79,0.00,,OVC,0.00,VWS V14.00,2013-01-18 03:28:00,
2013-01-17 22:33:00,38.8,33.2,30.01,West,270,0.0,0.0,80,0.00,,OVC,0.00,VWS V14.00,2013-01-18 03:33:00,
2013-01-17 22:38:00,39.0,33.4,30.01,West,270,0.0,0.0,80,0.00,,OVC,0.00,VWS V14.00,2013-01-18 03:38:00,
2013-01-17 22:43:00,39.0,33.4,30.02,West,270,0.0,0.0,80,0.00,,OVC,0.00,VWS V14.00,2013-01-18 03:43:00,
2013-01-17 22:48:00,39.0,33.7,30.04,West,270,0.0,0.0,81,0.00,,OVC,0.00,VWS V14.00,2013-01-18 03:48:00,
2013-01-17 22:53:00,38.8,33.5,30.04,West,270,0.0,0.0,81,0.00,,OVC,0.00,VWS V14.00,2013-01-18 03:53:00,
2013-01-17 22:58:00,38.8,33.5,30.05,West,270,0.0,0.0,81,0.00,,OVC,0.00,VWS V14.00,2013-01-18 03:58:00,
2013-01-17 23:03:00,38.8,33.5,30.05,West,270,0.0,0.0,81,0.00,,OVC,0.00,VWS V14.00,2013-01-18 04:03:00,
2013-01-17 23:08:00,38.8,33.5,30.04,West,270,0.0,0.0,81,0.00,,OVC,0.00,VWS V14.00,2013-01-18 04:08:00,
2013-01-17 23:13:00,38.6,33.0,30.01,WNW,292,0.0,0.0,80,0.00,,OVC,0.00,VWS V14.00,2013-01-18 04:13:00,
2013-01-17 23:18:00,38.4,32.5,30.00,NW,315,0.0,0.0,79,0.00,,OVC,0.00,VWS V14.00,2013-01-18 04:18:00,
2013-01-17 23:23:00,38.4,32.5,30.01,NNW,338,0.0,0.0,79,0.00,,OVC,0.00,VWS V14.00,2013-01-18 04:23:00,
2013-01-17 23:28:00,38.3,32.0,30.02,North,0,0.0,0.0,78,0.00,,OVC,0.00,VWS V14.00,2013-01-18 04:28:00,
2013-01-17 23:33:00,38.3,31.7,30.03,NNE,22,0.0,0.0,77,0.00,,OVC,0.00,VWS V14.00,2013-01-18 04:33:00,
2013-01-17 23:38:00,38.3,31.1,30.02,NNE,22,1.1,1.1,75,0.00,,OVC,0.00,VWS V14.00,2013-01-18 04:38:00,
2013-01-17 23:43:00,38.3,30.8,30.00,NNE,22,3.3,3.3,74,0.00,,OVC,0.00,VWS V14.00,2013-01-18 04:43:00,
2013-01-17 23:48:00,38.3,30.4,30.01,NNE,22,0.0,0.0,73,0.00,,OVC,0.00,VWS V14.00,2013-01-18 04:48:00,
2013-01-17 23:53:00,38.1,30.2,30.01,NE,45,0.0,0.0,73,0.00,,OVC,0.00,VWS V14.00,2013-01-18 04:53:00,
2013-01-17 23:58:00,38.1,29.9,30.03,NNE,22,0.0,0.0,72,0.00,,OVC,0.00,VWS V14.00,2013-01-18 04:58:00,